Time;durP1;ratioP1;P1;durP2;ratioP2;P2;SDS_P1;SDS_P2;PMS_P1;PMS_P2;Temp;Humidity;BMP_temperature;BMP_pressure;BME280_temperature;BME280_humidity;BME280_pressure;Samples;Min_cycle;Max_cycle;Signal;HPM_P1;HPM_P2
2022/11/06 00:00:26;;;;;;;9.97;4.87;;;;;;;7.81;100.00;101176.94;7387163;19;20476;-51
2022/11/06 00:02:58;;;;;;;10.07;4.97;;;;;;;7.86;100.00;101183.25;7391264;19;20391;-55
2022/11/06 00:08:10;;;;;;;9.80;5.03;;;;;;;7.81;100.00;101182.94;7389280;19;20457;-53
2022/11/06 00:10:40;;;;;;;11.67;5.60;;;;;;;7.85;100.00;101184.03;7387423;19;20414;-53
2022/11/06 00:13:12;;;;;;;12.70;5.43;;;;;;;7.86;100.00;101182.34;7390970;19;20427;-51
2022/11/06 00:15:41;;;;;;;7.63;4.13;;;;;;;7.88;100.00;101179.06;7387648;19;20441;-50
2022/11/06 00:18:11;;;;;;;11.93;4.53;;;;;;;7.90;100.00;101174.91;7390477;19;20403;-50
2022/11/06 00:20:41;;;;;;;9.97;5.00;;;;;;;7.93;100.00;101180.22;7387482;19;20954;-53
2022/11/06 00:23:10;;;;;;;11.57;4.60;;;;;;;7.97;100.00;101173.59;7390471;19;21143;-53
2022/11/06 00:25:42;;;;;;;11.00;4.90;;;;;;;7.97;100.00;101173.59;7387679;19;20415;-54
2022/11/06 00:28:14;;;;;;;10.37;3.90;;;;;;;7.96;100.00;101172.69;7389844;19;20403;-53
2022/11/06 00:30:44;;;;;;;7.70;4.37;;;;;;;7.95;100.00;101176.06;7387568;19;20423;-51
2022/11/06 00:33:13;;;;;;;9.60;4.70;;;;;;;7.94;100.00;101179.44;7389572;19;20392;-51
2022/11/06 00:35:43;;;;;;;7.93;3.90;;;;;;;7.95;100.00;101172.63;7387437;19;20415;-51
2022/11/06 00:38:13;;;;;;;9.13;4.73;;;;;;;7.96;100.00;101177.81;7389228;19;20416;-50
2022/11/06 00:40:43;;;;;;;8.13;4.20;;;;;;;7.95;100.00;101170.91;7388637;19;20471;-52
2022/11/06 00:43:15;;;;;;;7.10;4.33;;;;;;;7.95;100.00;101160.63;7389771;19;20477;-53
2022/11/06 00:45:45;;;;;;;8.83;4.30;;;;;;;7.94;100.00;101181.09;7389227;19;20454;-52
2022/11/06 00:48:14;;;;;;;7.23;3.87;;;;;;;7.93;100.00;101169.94;7388648;19;20431;-54
2022/11/06 00:50:44;;;;;;;12.63;4.80;;;;;;;7.91;100.00;101163.84;7386457;19;21237;-52
2022/11/06 00:53:14;;;;;;;8.07;3.30;;;;;;;7.89;100.00;101161.97;7389563;19;20956;-50
2022/11/06 00:55:43;;;;;;;7.10;3.57;;;;;;;7.89;100.00;101157.72;7386600;19;20415;-53
2022/11/06 00:58:15;;;;;;;9.23;3.37;;;;;;;7.88;100.00;101157.63;7389102;19;20941;-50
2022/11/06 01:00:45;;;;;;;11.43;4.40;;;;;;;7.88;100.00;101152.47;7382326;19;20438;-51
2022/11/06 01:03:14;;;;;;;8.53;4.10;;;;;;;7.88;100.00;101148.25;7389345;19;20391;-50
2022/11/06 01:05:44;;;;;;;8.13;4.17;;;;;;;7.86;100.00;101149.84;7387209;19;20427;-50
2022/11/06 01:08:13;;;;;;;7.33;4.23;;;;;;;7.86;100.00;101149.84;7388376;19;20992;-52
2022/11/06 01:10:43;;;;;;;6.43;2.90;;;;;;;7.85;100.00;101148.06;7386293;19;20768;-49
2022/11/06 01:13:16;;;;;;;7.30;4.07;;;;;;;7.88;100.00;101149.91;7389209;19;20390;-51
2022/11/06 01:15:45;;;;;;;8.00;3.77;;;;;;;7.86;100.00;101142.13;7385720;19;21105;-52
2022/11/06 01:18:15;;;;;;;11.10;3.80;;;;;;;7.87;100.00;101140.44;7388350;19;20415;-54
2022/11/06 01:20:44;;;;;;;9.30;4.13;;;;;;;7.89;100.00;101144.00;7391895;19;20414;-51
2022/11/06 01:23:14;;;;;;;7.03;3.60;;;;;;;7.89;100.00;101144.88;7396356;19;20411;-49
2022/11/06 01:25:43;;;;;;;11.07;3.00;;;;;;;7.89;100.00;101139.72;7393639;19;20413;-49
2022/11/06 01:28:19;;;;;;;7.23;3.60;;;;;;;7.87;100.00;101137.84;7395296;19;20441;-48
2022/11/06 01:30:49;;;;;;;9.87;3.23;;;;;;;7.86;100.00;101134.44;7392968;19;20426;-51
2022/11/06 01:33:18;;;;;;;9.37;3.87;;;;;;;7.86;100.00;101126.72;7393453;19;20409;-50
2022/11/06 01:35:49;;;;;;;8.80;3.50;;;;;;;7.83;100.00;101130.00;7393519;19;20449;-47
2022/11/06 01:38:19;;;;;;;9.43;4.30;;;;;;;7.84;100.00;101121.47;7394822;19;20448;-48
2022/11/06 01:40:49;;;;;;;5.63;3.60;;;;;;;7.87;100.00;101110.50;7392925;19;20423;-50
2022/11/06 01:43:24;;;;;;;13.30;4.93;;;;;;;7.89;100.00;101116.59;7393594;19;20749;-49
2022/11/06 01:45:54;;;;;;;9.00;3.37;;;;;;;7.87;100.00;101109.59;7393039;19;20418;-50
2022/11/06 01:48:26;;;;;;;8.97;3.97;;;;;;;7.86;100.00;101102.69;7393986;19;20449;-52
2022/11/06 01:50:58;;;;;;;9.07;4.43;;;;;;;7.90;100.00;101102.09;7390884;19;20427;-49
2022/11/06 01:53:28;;;;;;;11.60;4.23;;;;;;;7.91;100.00;101101.28;7395687;19;20402;-52
2022/11/06 01:56:00;;;;;;;8.83;3.67;;;;;;;7.91;100.00;101094.47;7392699;19;20415;-50
2022/11/06 01:58:34;;;;;;;9.73;4.40;;;;;;;7.92;100.00;101092.78;7393691;19;20448;-51
2022/11/06 02:01:04;;;;;;;11.90;4.23;;;;;;;7.90;100.00;101090.09;7391766;19;20407;-50
2022/11/06 02:03:34;;;;;;;10.87;3.90;;;;;;;7.87;100.00;101092.50;7394779;19;20423;-52
2022/11/06 02:06:04;;;;;;;7.30;4.23;;;;;;;7.89;100.00;101097.75;7392464;19;20443;-50
2022/11/06 02:08:33;;;;;;;7.60;3.73;;;;;;;7.86;100.00;101098.47;7393228;19;20427;-51
2022/11/06 02:11:03;;;;;;;8.17;3.90;;;;;;;7.88;100.00;101091.72;7394516;19;20430;-48
2022/11/06 02:13:42;;;;;;;7.50;3.60;;;;;;;7.88;100.00;101078.88;7394560;19;20392;-48
2022/11/06 02:16:16;;;;;;;8.87;4.20;;;;;;;7.91;100.00;101079.06;7390379;19;20442;-51
2022/11/06 02:18:57;;;;;;;14.53;5.23;;;;;;;7.88;100.00;101080.53;7390684;19;20452;-52
2022/11/06 02:21:38;;;;;;;7.07;4.03;;;;;;;7.90;100.00;101069.56;7390845;19;20421;-48
2022/11/06 02:24:21;;;;;;;10.93;4.93;;;;;;;7.92;100.00;101073.13;7392083;19;20399;-50
2022/11/06 02:27:11;;;;;;;10.73;4.20;;;;;;;7.93;100.00;101077.47;7388937;19;20439;-48
2022/11/06 02:29:48;;;;;;;7.40;3.67;;;;;;;7.95;100.00;101065.56;7390821;19;20455;-54
2022/11/06 02:32:22;;;;;;;6.70;3.93;;;;;;;7.91;100.00;101061.06;7389191;19;20419;-52
2022/11/06 02:34:53;;;;;;;6.97;4.53;;;;;;;7.95;100.00;101065.56;7389852;19;20388;-51
2022/11/06 02:37:27;;;;;;;6.77;4.80;;;;;;;7.95;100.00;101057.88;7391974;19;20383;-51
2022/11/06 02:39:59;;;;;;;8.30;3.67;;;;;;;7.94;100.00;101058.66;7386750;19;20450;-50
2022/11/06 02:42:32;;;;;;;7.37;4.10;;;;;;;7.95;100.00;101046.72;7395210;19;20396;-53
2022/11/06 02:45:02;;;;;;;10.07;4.27;;;;;;;7.92;100.00;101055.13;7391629;19;20835;-54
2022/11/06 02:47:34;;;;;;;8.70;4.27;;;;;;;7.92;100.00;101047.44;7393241;19;20828;-49
2022/11/06 02:50:07;;;;;;;6.53;3.70;;;;;;;7.97;100.00;101047.69;7389948;19;20443;-48
2022/11/06 02:52:39;;;;;;;7.43;4.10;;;;;;;7.93;100.00;101040.59;7393558;19;20400;-50
2022/11/06 02:55:11;;;;;;;10.80;3.70;;;;;;;7.93;100.00;101038.91;7391131;19;20552;-49
2022/11/06 02:57:46;;;;;;;9.57;4.57;;;;;;;7.95;100.00;101042.44;7393474;19;20407;-49
2022/11/06 03:00:17;;;;;;;6.70;3.30;;;;;;;7.94;100.00;101035.53;7390217;19;20438;-50
2022/11/06 03:02:51;;;;;;;5.60;3.57;;;;;;;7.94;100.00;101040.69;7392530;19;20379;-50
2022/11/06 03:05:25;;;;;;;10.23;4.07;;;;;;;7.94;100.00;101037.22;7387577;19;20534;-49
2022/11/06 03:07:58;;;;;;;10.03;4.13;;;;;;;7.92;100.00;101029.44;7393350;19;20384;-52
2022/11/06 03:10:31;;;;;;;7.60;4.30;;;;;;;7.96;100.00;101023.66;7389597;19;20435;-51
2022/11/06 03:13:07;;;;;;;8.27;3.97;;;;;;;7.97;100.00;101012.59;7396912;19;20410;-51
2022/11/06 03:15:41;;;;;;;8.17;4.23;;;;;;;7.97;100.00;101010.03;7389640;19;20431;-54
2022/11/06 03:18:13;;;;;;;8.60;4.67;;;;;;;8.01;100.00;100999.91;7392532;19;20427;-49
2022/11/06 03:20:45;;;;;;;7.67;4.23;;;;;;;7.99;100.00;101011.81;7389996;19;20493;-49
2022/11/06 03:23:17;;;;;;;7.93;3.87;;;;;;;8.00;100.00;101003.28;7392099;19;20396;-48
2022/11/06 03:25:50;;;;;;;8.23;4.07;;;;;;;8.04;100.00;101011.25;7389942;19;20793;-52
2022/11/06 03:28:27;;;;;;;6.33;3.70;;;;;;;8.03;100.00;101008.59;7393079;19;20456;-50
2022/11/06 03:31:00;;;;;;;5.97;3.63;;;;;;;7.99;100.00;101019.50;7391280;19;20442;-51
2022/11/06 03:33:33;;;;;;;8.10;4.67;;;;;;;7.97;100.00;101009.13;7391671;19;20478;-52
2022/11/06 03:36:06;;;;;;;6.60;3.70;;;;;;;7.99;100.00;101011.81;7389905;19;20950;-52
2022/11/06 03:38:37;;;;;;;6.77;3.90;;;;;;;7.97;100.00;101007.47;7391413;19;20447;-55
2022/11/06 03:41:14;;;;;;;11.17;4.33;;;;;;;7.99;100.00;100991.25;7389516;19;20756;-51
2022/11/06 03:43:49;;;;;;;11.60;3.97;;;;;;;7.99;100.00;100996.38;7390148;19;20387;-55
2022/11/06 03:46:23;;;;;;;7.87;3.10;;;;;;;7.96;100.00;101003.09;7389250;19;20964;-54
2022/11/06 03:48:56;;;;;;;12.80;4.37;;;;;;;7.98;100.00;101000.63;7390419;19;20433;-50
2022/11/06 03:51:28;;;;;;;10.50;3.67;;;;;;;7.97;100.00;100994.63;7389217;19;20411;-52
2022/11/06 03:54:00;;;;;;;16.27;3.30;;;;;;;7.97;100.00;100999.75;7391696;19;20768;-54
2022/11/06 03:56:32;;;;;;;5.00;2.63;;;;;;;7.97;100.00;100991.16;7389004;19;20759;-50
2022/11/06 03:59:06;;;;;;;7.50;4.60;;;;;;;7.99;100.00;100986.97;7390003;19;20802;-54
2022/11/06 04:01:38;;;;;;;14.33;4.07;;;;;;;8.00;100.00;100986.16;7388629;19;20399;-51
2022/11/06 04:04:13;;;;;;;6.60;3.70;;;;;;;7.97;100.00;100992.06;7389935;19;20398;-53
2022/11/06 04:06:45;;;;;;;9.37;4.20;;;;;;;7.96;100.00;100985.13;7388399;19;20438;-51
2022/11/06 04:14:46;;;;;;;6.30;2.90;;;;;;;7.96;100.00;101003.09;7391192;19;20421;-54
2022/11/06 04:17:16;;;;;;;7.47;3.77;;;;;;;7.95;100.00;100995.31;7390273;19;20409;-50
2022/11/06 04:19:49;;;;;;;9.20;4.00;;;;;;;7.96;100.00;100982.53;7388422;19;20936;-50
2022/11/06 04:22:29;;;;;;;11.90;5.60;;;;;;;7.98;100.00;100980.06;7389995;19;20416;-54
2022/11/06 04:27:59;;;;;;;7.10;3.33;;;;;;;7.93;100.00;100996.91;7389685;19;20419;-50
2022/11/06 04:30:33;;;;;;;9.90;4.30;;;;;;;7.92;100.00;100984.88;7387480;19;20411;-56
2022/11/06 04:33:08;;;;;;;7.47;3.80;;;;;;;7.92;100.00;100990.91;7390145;19;20393;-51
2022/11/06 04:35:47;;;;;;;6.40;3.50;;;;;;;7.91;100.00;100989.13;7389028;19;20477;-55
2022/11/06 04:38:21;;;;;;;9.00;4.30;;;;;;;7.91;100.00;100986.56;7389338;19;20407;-50
2022/11/06 04:40:55;;;;;;;11.43;4.57;;;;;;;7.92;100.00;100988.34;7387213;19;20458;-52
2022/11/06 04:43:29;;;;;;;7.03;3.70;;;;;;;7.91;100.00;100998.50;7389370;19;20768;-54
2022/11/06 04:46:03;;;;;;;7.10;3.70;;;;;;;7.94;100.00;100979.00;7387547;19;20407;-49
2022/11/06 04:48:32;;;;;;;11.33;3.30;;;;;;;7.90;100.00;100982.19;7388908;19;20871;-49
2022/11/06 04:51:05;;;;;;;7.23;3.80;;;;;;;7.92;100.00;100978.06;7387684;19;20407;-50
2022/11/06 04:53:34;;;;;;;7.17;3.43;;;;;;;7.87;100.00;100982.03;7388703;19;20391;-53
2022/11/06 04:56:11;;;;;;;11.57;4.00;;;;;;;7.86;100.00;100975.13;7387185;19;20407;-49
2022/11/06 04:58:40;;;;;;;7.33;3.50;;;;;;;7.87;100.00;100971.75;7388437;19;20792;-52
2022/11/06 05:01:12;;;;;;;7.73;3.50;;;;;;;7.87;100.00;100971.75;7388859;19;20876;-50
2022/11/06 05:03:42;;;;;;;10.27;3.00;;;;;;;7.86;100.00;100972.56;7390806;19;20434;-54
2022/11/06 05:06:11;;;;;;;11.10;3.37;;;;;;;7.86;100.00;100959.72;7391044;19;20490;-51
2022/11/06 05:08:41;;;;;;;5.13;3.50;;;;;;;7.83;100.00;100970.72;7387937;19;20415;-52
2022/11/06 05:11:10;;;;;;;6.10;2.63;;;;;;;7.81;100.00;100976.56;7389081;19;20460;-53
2022/11/06 05:13:40;;;;;;;9.73;3.57;;;;;;;7.84;100.00;100976.72;7393333;19;20393;-53
2022/11/06 05:16:12;;;;;;;7.73;3.70;;;;;;;7.81;100.00;100971.41;7386382;19;20419;-50
2022/11/06 05:18:41;;;;;;;6.50;3.33;;;;;;;7.80;100.00;100969.66;7391571;19;20441;-52
2022/11/06 05:23:53;;;;;;;8.40;3.90;;;;;;;7.79;100.00;100966.19;7388233;19;20387;-51
2022/11/06 05:26:22;;;;;;;6.10;3.17;;;;;;;7.76;100.00;100957.44;7386296;19;20403;-54
2022/11/06 05:28:52;;;;;;;6.23;2.33;;;;;;;7.77;100.00;100954.06;7387104;19;20407;-50
2022/11/06 05:31:24;;;;;;;7.63;3.73;;;;;;;7.76;100.00;100950.63;7386142;19;20411;-53
2022/11/06 05:33:53;;;;;;;5.57;3.00;;;;;;;7.77;100.00;100957.53;7388792;19;20384;-51
2022/11/06 05:36:23;;;;;;;8.73;3.73;;;;;;;7.76;100.00;100952.28;7386294;19;20410;-53
2022/11/06 05:38:52;;;;;;;4.30;1.80;;;;;;;7.74;100.00;100957.34;7386729;19;20427;-50
2022/11/06 05:41:22;;;;;;;7.70;3.43;;;;;;;7.77;100.00;100965.22;7386320;19;20417;-51
2022/11/06 05:43:52;;;;;;;8.43;3.17;;;;;;;7.75;100.00;100960.81;7387705;19;20390;-50
2022/11/06 05:46:24;;;;;;;7.03;3.57;;;;;;;7.72;100.00;100973.44;7385913;19;20421;-52
2022/11/06 05:49:13;;;;;;;10.00;3.03;;;;;;;7.68;100.00;100970.72;7386816;19;20482;-51
2022/11/06 05:51:42;;;;;;;6.30;2.57;;;;;;;7.67;100.00;100958.69;7386049;19;20426;-53
2022/11/06 05:54:12;;;;;;;5.17;3.00;;;;;;;7.64;100.00;100962.75;7388173;19;20383;-53
2022/11/06 05:56:41;;;;;;;7.07;2.60;;;;;;;7.61;100.00;100968.59;7385685;19;20423;-52
2022/11/06 05:59:11;;;;;;;5.20;3.23;;;;;;;7.61;100.00;100962.56;7386388;19;20419;-55
2022/11/06 06:01:44;;;;;;;8.97;3.50;;;;;;;7.57;100.00;100961.50;7385295;19;20768;-51
2022/11/06 06:04:13;;;;;;;6.77;3.13;;;;;;;7.45;100.00;100963.38;7387138;19;20386;-52
2022/11/06 06:06:43;;;;;;;9.73;3.80;;;;;;;7.37;100.00;100970.63;7387566;19;20453;-50
2022/11/06 06:09:12;;;;;;;6.77;3.20;;;;;;;7.32;100.00;100961.81;7393034;19;20447;-51
2022/11/06 06:11:42;;;;;;;7.77;3.80;;;;;;;7.33;100.00;100961.88;7391842;19;20421;-52
2022/11/06 06:14:11;;;;;;;8.60;3.30;;;;;;;7.19;100.00;100953.38;7394942;19;20400;-51
2022/11/06 06:16:43;;;;;;;13.57;4.53;;;;;;;7.09;100.00;100953.63;7392380;19;20413;-52
2022/11/06 06:19:13;;;;;;;7.70;3.37;;;;;;;7.03;100.00;100952.47;7392860;19;20774;-50
2022/11/06 06:21:42;;;;;;;11.40;4.30;;;;;;;7.03;100.00;100946.47;7391984;19;20807;-49
2022/11/06 06:24:11;;;;;;;8.90;4.03;;;;;;;6.97;100.00;100946.09;7394053;19;20387;-52
2022/11/06 06:26:41;;;;;;;9.80;4.17;;;;;;;6.86;100.00;100938.63;7390496;19;20425;-50
2022/11/06 06:29:11;;;;;;;10.33;4.30;;;;;;;6.82;100.00;100935.81;7392411;19;20438;-53
2022/11/06 06:31:40;;;;;;;10.47;4.03;;;;;;;6.83;100.00;100922.19;7390972;19;20413;-50
2022/11/06 06:34:12;;;;;;;8.93;3.93;;;;;;;6.83;100.00;100902.53;7395460;19;20411;-54
2022/11/06 06:36:41;;;;;;;10.83;4.33;;;;;;;6.84;100.00;100894.06;7391457;19;20438;-53
2022/11/06 06:39:11;;;;;;;4.60;2.50;;;;;;;6.87;100.00;100891.66;7392326;19;20434;-52
2022/11/06 06:41:40;;;;;;;12.77;3.80;;;;;;;6.88;100.00;100887.44;7390820;19;20412;-51
2022/11/06 06:44:10;;;;;;;7.53;3.83;;;;;;;6.91;100.00;100881.59;7393477;19;21023;-51
2022/11/06 06:46:39;;;;;;;10.63;4.27;;;;;;;6.92;100.00;100883.38;7391226;19;20411;-53
2022/11/06 06:49:11;;;;;;;9.13;3.13;;;;;;;6.95;100.00;100879.28;7395992;19;20418;-54
2022/11/06 06:51:41;;;;;;;11.77;4.00;;;;;;;6.97;100.00;100876.84;7394388;19;20480;-50
2022/11/06 06:54:10;;;;;;;9.27;4.50;;;;;;;6.95;100.00;100876.72;7393695;19;20420;-52
2022/11/06 06:56:40;;;;;;;15.97;4.30;;;;;;;6.96;100.00;100877.59;7392570;19;20448;-53
2022/11/06 06:59:09;;;;;;;6.03;3.17;;;;;;;6.99;100.00;100863.28;7391993;19;20457;-49
2022/11/06 07:01:39;;;;;;;15.10;4.23;;;;;;;7.01;100.00;100868.50;7390765;19;20435;-54
2022/11/06 07:04:12;;;;;;;10.63;3.93;;;;;;;7.05;100.00;100870.44;7393231;19;20387;-50
2022/11/06 07:06:42;;;;;;;8.30;4.37;;;;;;;7.09;100.00;100871.50;7390450;19;20864;-56
2022/11/06 07:09:11;;;;;;;5.63;3.87;;;;;;;7.13;100.00;100869.22;7391405;19;20797;-50
2022/11/06 07:11:41;;;;;;;12.33;4.10;;;;;;;7.15;100.00;100877.91;7390250;19;20783;-51
2022/11/06 07:14:11;;;;;;;8.33;3.50;;;;;;;7.19;100.00;100883.19;7393055;19;20384;-53
2022/11/06 07:16:41;;;;;;;9.93;4.00;;;;;;;7.25;100.00;100886.13;7389714;19;20426;-52
2022/11/06 07:19:13;;;;;;;9.27;3.33;;;;;;;7.27;100.00;100887.06;7390973;19;20448;-55
2022/11/06 07:21:42;;;;;;;7.40;3.90;;;;;;;7.24;100.00;100882.66;7390147;19;20418;-54
2022/11/06 07:24:12;;;;;;;7.73;3.50;;;;;;;7.19;100.00;100891.78;7395807;19;20402;-53
2022/11/06 07:26:41;;;;;;;7.83;3.90;;;;;;;7.19;100.00;100893.47;7390450;19;20447;-50
2022/11/06 07:29:11;;;;;;;13.13;3.87;;;;;;;7.19;100.00;100896.03;7390825;19;20457;-55
2022/11/06 07:31:40;;;;;;;9.93;3.57;;;;;;;7.22;100.00;100902.22;7389260;19;20436;-51
2022/11/06 07:34:13;;;;;;;7.23;3.60;;;;;;;7.27;100.00;100895.66;7392462;19;20403;-51
2022/11/06 07:36:43;;;;;;;11.73;4.00;;;;;;;7.29;100.00;100898.34;7390462;19;20748;-55
2022/11/06 07:39:12;;;;;;;11.40;3.57;;;;;;;7.33;100.00;100904.53;7390510;19;20825;-49
2022/11/06 07:41:41;;;;;;;9.97;3.40;;;;;;;7.36;100.00;100905.59;7389027;19;20435;-55
2022/11/06 07:44:11;;;;;;;5.97;3.00;;;;;;;7.37;100.00;100902.22;7392806;19;20422;-53
2022/11/06 07:46:40;;;;;;;7.23;3.40;;;;;;;7.41;100.00;100899.03;7388400;19;20781;-55
2022/11/06 07:49:14;;;;;;;11.87;3.10;;;;;;;7.50;100.00;100897.78;7390266;19;20961;-54
2022/11/06 07:51:44;;;;;;;8.17;3.27;;;;;;;7.51;100.00;100899.53;7389364;19;20402;-51
2022/11/06 07:54:13;;;;;;;7.37;3.50;;;;;;;7.59;100.00;100911.13;7391764;19;20391;-53
2022/11/06 07:56:43;;;;;;;7.57;3.57;;;;;;;7.61;100.00;100906.97;7389054;19;20779;-50
2022/11/06 07:59:12;;;;;;;7.13;2.27;;;;;;;7.61;100.00;100917.25;7389787;19;20415;-51
2022/11/06 08:01:42;;;;;;;8.30;3.20;;;;;;;7.65;100.00;100921.75;7388549;19;20422;-56
2022/11/06 08:04:14;;;;;;;9.07;2.83;;;;;;;7.65;100.00;100916.59;7391676;19;20498;-50
2022/11/06 08:06:43;;;;;;;8.87;2.83;;;;;;;7.56;100.00;100924.69;7388294;19;20431;-51
2022/11/06 08:09:13;;;;;;;7.30;3.00;;;;;;;7.47;100.00;100923.25;7389790;19;20444;-55
2022/11/06 08:11:42;;;;;;;5.77;2.70;;;;;;;7.43;100.00;100922.19;7387989;19;20419;-52
2022/11/06 08:14:12;;;;;;;6.60;2.83;;;;;;;7.46;100.00;100921.50;7392642;19;20436;-51
2022/11/06 08:16:42;;;;;;;9.10;3.77;;;;;;;7.50;100.00;100915.75;7390917;19;20491;-53
2022/11/06 08:19:14;;;;;;;8.03;3.20;;;;;;;7.45;100.00;100914.59;7389405;19;20427;-49
2022/11/06 08:21:43;;;;;;;5.20;2.80;;;;;;;7.52;100.00;100899.63;7388285;19;20411;-50
2022/11/06 08:24:13;;;;;;;7.80;3.10;;;;;;;7.56;100.00;100903.25;7390779;19;20757;-54
2022/11/06 08:26:50;;;;;;;11.83;3.30;;;;;;;7.65;100.00;100905.47;7390539;19;20439;-49
2022/11/06 08:29:19;;;;;;;8.60;3.03;;;;;;;7.72;100.00;100893.81;7386686;19;20419;-53
2022/11/06 08:31:49;;;;;;;5.67;2.70;;;;;;;7.75;100.00;100904.28;7387441;19;20974;-50
2022/11/06 08:34:21;;;;;;;7.07;2.53;;;;;;;7.77;100.00;100915.53;7390425;19;20388;-50
2022/11/06 08:36:51;;;;;;;5.23;2.30;;;;;;;7.82;100.00;100911.53;7387647;19;20433;-52
2022/11/06 08:39:20;;;;;;;6.93;2.70;;;;;;;7.84;100.00;100915.06;7388688;19;20437;-50
2022/11/06 08:41:50;;;;;;;9.00;2.70;;;;;;;7.80;100.00;100913.16;7387028;19;20419;-51
2022/11/06 08:44:19;;;;;;;5.83;2.77;;;;;;;7.75;100.00;100912.00;7393447;19;20402;-54
2022/11/06 08:46:50;;;;;;;4.67;2.10;;;;;;;7.70;100.00;100902.34;7386096;19;20442;-53
2022/11/06 08:49:23;;;;;;;9.13;2.33;;;;;;;7.73;100.00;100900.75;7388793;19;20431;-52
2022/11/06 08:51:53;;;;;;;7.13;2.80;;;;;;;7.78;100.00;100895.06;7387492;19;20439;-50
2022/11/06 08:54:22;;;;;;;8.43;3.10;;;;;;;7.88;100.00;100891.31;7391376;19;20387;-50
2022/11/06 08:56:52;;;;;;;9.87;3.30;;;;;;;7.94;100.00;100886.50;7387191;19;20415;-52
2022/11/06 08:59:21;;;;;;;8.00;3.10;;;;;;;8.00;100.00;100888.53;7388109;19;20973;-51
2022/11/06 09:01:51;;;;;;;9.67;3.07;;;;;;;8.11;100.00;100887.41;7386386;19;20447;-57
2022/11/06 09:04:23;;;;;;;3.70;2.10;;;;;;;8.17;100.00;100878.28;7390288;19;20420;-53
2022/11/06 09:06:52;;;;;;;7.33;2.50;;;;;;;8.27;100.00;100871.94;7389065;19;20515;-57
2022/11/06 09:09:22;;;;;;;8.80;2.90;;;;;;;8.34;100.00;100871.47;7387747;19;20418;-55
2022/11/06 09:11:51;;;;;;;7.90;2.50;;;;;;;8.40;100.00;100874.34;7386506;19;20439;-54
2022/11/06 09:14:21;;;;;;;5.87;2.97;;;;;;;8.47;100.00;100879.00;7389638;19;20420;-55
2022/11/06 09:16:50;;;;;;;5.43;2.50;;;;;;;8.53;100.00;100885.31;7386818;19;20415;-54
2022/11/06 09:19:23;;;;;;;6.30;2.00;;;;;;;8.46;100.00;100891.81;7389779;19;20415;-51
2022/11/06 09:21:52;;;;;;;10.50;3.03;;;;;;;8.56;100.00;100894.06;7386798;19;20443;-55
2022/11/06 09:24:23;;;;;;;4.83;2.30;;;;;;;8.63;100.00;100895.28;7388542;19;20383;-51
2022/11/06 09:27:13;;;;;;;7.07;2.47;;;;;;;8.59;100.00;100903.63;7384179;19;20427;-52
2022/11/06 09:29:43;;;;;;;4.60;2.13;;;;;;;8.58;100.00;100913.06;7385826;19;20435;-52
2022/11/06 09:32:12;;;;;;;7.20;2.30;;;;;;;8.64;100.00;100917.63;7385849;19;20423;-54
2022/11/06 09:34:44;;;;;;;7.23;2.47;;;;;;;8.61;100.00;100922.63;7388038;19;20721;-52
2022/11/06 09:37:14;;;;;;;8.30;2.57;;;;;;;8.68;100.00;100931.53;7385525;19;20448;-52
2022/11/06 09:39:44;;;;;;;7.53;2.00;;;;;;;8.63;100.00;100924.44;7385797;19;20411;-54
2022/11/06 09:42:20;;;;;;;10.30;2.60;;;;;;;8.63;100.00;100932.16;7392962;19;20411;-51
2022/11/06 09:44:59;;;;;;;6.17;2.40;;;;;;;8.70;100.00;100933.38;7395659;19;20387;-51
2022/11/06 09:47:33;;;;;;;5.80;2.20;;;;;;;8.66;100.00;100936.59;7392475;19;20958;-55
2022/11/06 09:50:08;;;;;;;6.77;2.30;;;;;;;8.72;100.00;100941.19;7390548;19;20440;-49
2022/11/06 09:52:42;;;;;;;7.03;2.40;;;;;;;8.82;100.00;100927.09;7394797;19;20395;-53
2022/11/06 09:55:16;;;;;;;7.03;2.77;;;;;;;8.81;100.00;100940.78;7393312;19;20772;-50
2022/11/06 09:57:48;;;;;;;9.27;2.20;;;;;;;8.87;100.00;100938.53;7394930;19;20940;-52
2022/11/06 10:00:19;;;;;;;5.97;2.10;;;;;;;8.87;100.00;100938.53;7390082;19;20797;-50
2022/11/06 10:02:50;;;;;;;5.20;2.27;;;;;;;8.98;100.00;100934.78;7394883;19;20815;-51
2022/11/06 10:05:26;;;;;;;7.33;2.73;;;;;;;9.15;100.00;100930.53;7392742;19;20413;-53
2022/11/06 10:07:58;;;;;;;8.63;2.50;;;;;;;9.13;100.00;100932.13;7392085;19;20726;-50
2022/11/06 10:10:30;;;;;;;6.20;2.23;;;;;;;9.18;100.00;100928.09;7392824;19;20399;-50
2022/11/06 10:13:11;;;;;;;6.00;2.53;;;;;;;9.24;100.00;100926.63;7394922;19;20387;-53
2022/11/06 10:15:48;;;;;;;5.60;2.20;;;;;;;9.24;100.00;100927.53;7391595;19;20414;-54
2022/11/06 10:18:26;;;;;;;5.10;2.20;;;;;;;9.38;100.00;100932.47;7393953;19;20786;-49
2022/11/06 10:21:03;;;;;;;6.40;3.33;;;;;;;9.42;100.00;100939.53;7391481;19;20414;-52
2022/11/06 10:23:36;;;;;;;13.87;3.17;;;;;;;9.46;100.00;100938.88;7394148;19;20777;-53
2022/11/06 10:26:10;;;;;;;8.10;2.50;;;;;;;9.42;100.00;100931.78;7390945;19;20399;-52
2022/11/06 10:29:01;;;;;;;6.27;1.90;;;;;;;9.55;100.00;100934.16;7391972;19;20447;-52
2022/11/06 10:31:35;;;;;;;5.50;2.40;;;;;;;9.68;100.00;100929.59;7390542;19;20766;-53
2022/11/06 10:34:09;;;;;;;4.57;2.30;;;;;;;9.63;100.00;100931.09;7394062;19;20383;-53
2022/11/06 10:36:44;;;;;;;4.30;2.10;;;;;;;9.77;100.00;100935.22;7390263;19;20415;-55
2022/11/06 10:39:21;;;;;;;5.97;1.73;;;;;;;9.80;100.00;100935.34;7391794;19;20415;-49
2022/11/06 10:41:53;;;;;;;8.27;1.90;;;;;;;9.73;100.00;100938.44;7391777;19;20427;-49
2022/11/06 10:44:27;;;;;;;4.10;1.83;;;;;;;9.78;100.00;100941.22;7394229;19;20412;-49
2022/11/06 10:47:01;;;;;;;6.60;2.00;;;;;;;9.93;100.00;100933.34;7390237;19;20546;-50
2022/11/06 10:49:36;;;;;;;6.20;1.77;;;;;;;10.18;100.00;100926.75;7391237;19;20419;-51
2022/11/06 10:52:25;;;;;;;5.00;2.83;;;;;;;10.32;100.00;100925.72;7389436;19;20799;-52
2022/11/06 10:55:04;;;;;;;7.33;2.60;;;;;;;10.14;100.00;100925.75;7390517;19;20810;-51
2022/11/06 10:57:38;;;;;;;6.27;2.07;;;;;;;10.13;100.00;100924.88;7392993;19;20387;-53
2022/11/06 11:00:14;;;;;;;4.20;2.00;;;;;;;10.31;100.00;100921.34;7388775;19;20419;-51
2022/11/06 11:02:47;;;;;;;5.30;1.80;;;;;;;10.26;100.00;100923.72;7394583;19;21265;-52
2022/11/06 11:05:18;;;;;;;5.27;1.70;;;;;;;10.21;100.00;100921.75;7389575;19;20407;-52
2022/11/06 11:07:53;;;;;;;11.07;3.20;;;;;;;10.17;100.00;100914.69;7391340;19;20403;-50
2022/11/06 11:10:32;;;;;;;7.23;2.13;;;;;;;10.25;100.00;100909.06;7392236;19;20404;-53
2022/11/06 11:13:03;;;;;;;7.53;2.30;;;;;;;10.31;100.00;100894.69;7391386;19;20371;-53
2022/11/06 11:15:44;;;;;;;6.07;2.07;;;;;;;10.53;100.00;100881.09;7390270;19;20424;-51
2022/11/06 11:18:18;;;;;;;3.57;1.60;;;;;;;10.68;100.00;100883.47;7392267;19;20394;-51
2022/11/06 11:20:49;;;;;;;4.53;2.17;;;;;;;10.86;100.00;100880.78;7391653;19;20874;-55
2022/11/06 11:23:23;;;;;;;5.53;1.80;;;;;;;10.93;100.00;100890.53;7392266;19;20380;-50
2022/11/06 11:25:55;;;;;;;4.83;1.87;;;;;;;11.09;100.00;100891.19;7389870;19;20450;-53
2022/11/06 11:28:28;;;;;;;4.60;1.70;;;;;;;11.29;100.00;100898.88;7388946;19;20470;-53
2022/11/06 11:31:06;;;;;;;4.50;2.00;;;;;;;11.19;100.00;100903.66;7389168;19;20439;-51
2022/11/06 11:33:35;;;;;;;5.23;2.00;;;;;;;11.28;100.00;100897.13;7391109;19;20432;-50
2022/11/06 11:36:06;;;;;;;8.67;2.13;;;;;;;11.19;100.00;100897.63;7388644;19;20518;-49
2022/11/06 11:38:41;;;;;;;5.37;2.20;;;;;;;11.37;100.00;100881.13;7390349;19;20444;-50
2022/11/06 11:41:14;;;;;;;6.50;1.73;;;;;;;11.59;100.00;100869.94;7388780;19;20757;-52
2022/11/06 11:43:44;;;;;;;5.43;1.60;;;;;;;11.60;100.00;100874.28;7391607;19;20413;-54
2022/11/06 11:46:21;;;;;;;7.10;1.90;;;;;;;11.63;100.00;100874.41;7388180;19;20444;-58
2022/11/06 11:48:52;;;;;;;3.30;1.67;;;;;;;11.66;100.00;100881.38;7388589;19;20480;-55
2022/11/06 11:51:39;;;;;;;6.30;3.37;;;;;;;11.86;100.00;100884.75;7388668;19;20495;-54
2022/11/06 11:54:20;;;;;;;5.13;1.60;;;;;;;11.98;100.00;100882.66;7392977;19;20435;-54
2022/11/06 11:56:51;;;;;;;6.13;2.60;;;;;;;12.03;100.00;100890.56;7392592;19;20464;-53